sensor_id;sensor_type;location;lat;lon;timestamp;P1;durP1;ratioP1;P2;durP2;ratioP2
71366;SDS011;60030;52.274;8.040;2022-10-31T00:02:08;28.67;;;16.17;;
71366;SDS011;60030;52.274;8.040;2022-10-31T00:04:35;40.13;;;22.80;;
71366;SDS011;60030;52.274;8.040;2022-10-31T00:07:02;37.03;;;23.23;;
71366;SDS011;60030;52.274;8.040;2022-10-31T00:09:30;35.80;;;22.57;;
71366;SDS011;60030;52.274;8.040;2022-10-31T00:11:57;28.67;;;17.53;;
71366;SDS011;60030;52.274;8.040;2022-10-31T00:14:25;35.47;;;17.90;;
71366;SDS011;60030;52.274;8.040;2022-10-31T00:16:52;42.33;;;20.87;;
71366;SDS011;60030;52.274;8.040;2022-10-31T00:19:19;35.47;;;18.40;;
71366;SDS011;60030;52.274;8.040;2022-10-31T00:21:46;34.73;;;17.77;;
71366;SDS011;60030;52.274;8.040;2022-10-31T00:24:13;37.97;;;19.93;;
71366;SDS011;60030;52.274;8.040;2022-10-31T00:26:41;33.67;;;18.93;;
71366;SDS011;60030;52.274;8.040;2022-10-31T00:29:08;25.83;;;15.53;;
71366;SDS011;60030;52.274;8.040;2022-10-31T00:31:38;29.37;;;16.50;;
71366;SDS011;60030;52.274;8.040;2022-10-31T00:34:05;31.43;;;15.30;;
71366;SDS011;60030;52.274;8.040;2022-10-31T00:36:34;30.80;;;16.47;;
71366;SDS011;60030;52.274;8.040;2022-10-31T00:39:01;24.03;;;15.20;;
71366;SDS011;60030;52.274;8.040;2022-10-31T00:41:28;23.83;;;15.50;;
71366;SDS011;60030;52.274;8.040;2022-10-31T00:43:57;29.73;;;15.40;;
71366;SDS011;60030;52.274;8.040;2022-10-31T00:46:24;25.00;;;14.87;;
71366;SDS011;60030;52.274;8.040;2022-10-31T00:48:51;27.67;;;14.97;;
71366;SDS011;60030;52.274;8.040;2022-10-31T00:51:18;22.70;;;14.37;;
71366;SDS011;60030;52.274;8.040;2022-10-31T00:53:45;24.53;;;15.53;;
71366;SDS011;60030;52.274;8.040;2022-10-31T00:56:13;25.17;;;14.73;;
71366;SDS011;60030;52.274;8.040;2022-10-31T00:58:41;27.87;;;14.50;;
71366;SDS011;60030;52.274;8.040;2022-10-31T01:01:09;24.77;;;14.60;;
71366;SDS011;60030;52.274;8.040;2022-10-31T01:03:36;27.60;;;14.87;;
71366;SDS011;60030;52.274;8.040;2022-10-31T01:06:09;27.47;;;15.20;;
71366;SDS011;60030;52.274;8.040;2022-10-31T01:08:37;25.53;;;15.00;;
71366;SDS011;60030;52.274;8.040;2022-10-31T01:11:06;23.47;;;14.73;;
71366;SDS011;60030;52.274;8.040;2022-10-31T01:13:34;29.73;;;15.03;;
71366;SDS011;60030;52.274;8.040;2022-10-31T01:16:02;26.67;;;15.17;;
71366;SDS011;60030;52.274;8.040;2022-10-31T01:18:33;30.10;;;15.30;;
71366;SDS011;60030;52.274;8.040;2022-10-31T01:21:01;29.77;;;15.97;;
71366;SDS011;60030;52.274;8.040;2022-10-31T01:23:30;27.57;;;16.73;;
71366;SDS011;60030;52.274;8.040;2022-10-31T01:26:05;31.07;;;16.37;;
71366;SDS011;60030;52.274;8.040;2022-10-31T01:28:34;30.67;;;16.20;;
71366;SDS011;60030;52.274;8.040;2022-10-31T01:31:04;26.67;;;14.53;;
71366;SDS011;60030;52.274;8.040;2022-10-31T01:33:35;25.93;;;15.97;;
71366;SDS011;60030;52.274;8.040;2022-10-31T01:36:10;22.53;;;15.47;;
71366;SDS011;60030;52.274;8.040;2022-10-31T01:38:39;23.97;;;14.57;;
71366;SDS011;60030;52.274;8.040;2022-10-31T01:41:06;27.43;;;15.83;;
71366;SDS011;60030;52.274;8.040;2022-10-31T01:43:44;25.70;;;14.43;;
71366;SDS011;60030;52.274;8.040;2022-10-31T01:46:13;28.00;;;14.73;;
71366;SDS011;60030;52.274;8.040;2022-10-31T01:48:43;27.83;;;15.47;;
71366;SDS011;60030;52.274;8.040;2022-10-31T01:51:11;24.37;;;14.50;;
71366;SDS011;60030;52.274;8.040;2022-10-31T01:53:40;30.03;;;16.57;;
71366;SDS011;60030;52.274;8.040;2022-10-31T01:56:10;27.47;;;15.47;;
71366;SDS011;60030;52.274;8.040;2022-10-31T01:58:39;25.93;;;15.73;;
71366;SDS011;60030;52.274;8.040;2022-10-31T02:01:08;27.63;;;16.23;;
71366;SDS011;60030;52.274;8.040;2022-10-31T02:03:35;25.33;;;15.77;;
71366;SDS011;60030;52.274;8.040;2022-10-31T02:06:03;24.43;;;15.63;;
71366;SDS011;60030;52.274;8.040;2022-10-31T02:08:37;24.63;;;15.53;;
71366;SDS011;60030;52.274;8.040;2022-10-31T02:11:05;28.60;;;15.33;;
71366;SDS011;60030;52.274;8.040;2022-10-31T02:13:35;25.27;;;15.70;;
71366;SDS011;60030;52.274;8.040;2022-10-31T02:16:05;24.80;;;14.40;;
71366;SDS011;60030;52.274;8.040;2022-10-31T02:18:35;30.07;;;15.47;;
71366;SDS011;60030;52.274;8.040;2022-10-31T02:21:06;28.47;;;16.60;;
71366;SDS011;60030;52.274;8.040;2022-10-31T02:23:49;29.13;;;15.27;;
71366;SDS011;60030;52.274;8.040;2022-10-31T02:26:41;24.97;;;15.23;;
71366;SDS011;60030;52.274;8.040;2022-10-31T02:29:43;26.00;;;14.67;;
71366;SDS011;60030;52.274;8.040;2022-10-31T02:32:48;26.67;;;14.90;;
71366;SDS011;60030;52.274;8.040;2022-10-31T02:35:27;25.47;;;14.90;;
71366;SDS011;60030;52.274;8.040;2022-10-31T02:38:06;27.60;;;14.57;;
71366;SDS011;60030;52.274;8.040;2022-10-31T02:40:44;44.70;;;25.80;;
71366;SDS011;60030;52.274;8.040;2022-10-31T02:43:26;49.90;;;24.97;;
71366;SDS011;60030;52.274;8.040;2022-10-31T02:45:58;41.90;;;22.43;;
71366;SDS011;60030;52.274;8.040;2022-10-31T02:48:35;35.73;;;20.03;;
71366;SDS011;60030;52.274;8.040;2022-10-31T02:51:07;35.53;;;18.47;;
71366;SDS011;60030;52.274;8.040;2022-10-31T02:53:36;30.83;;;17.77;;
71366;SDS011;60030;52.274;8.040;2022-10-31T02:56:07;29.73;;;16.60;;
71366;SDS011;60030;52.274;8.040;2022-10-31T02:58:40;34.57;;;19.23;;
71366;SDS011;60030;52.274;8.040;2022-10-31T03:01:25;32.20;;;18.00;;
71366;SDS011;60030;52.274;8.040;2022-10-31T03:04:19;24.23;;;15.87;;
71366;SDS011;60030;52.274;8.040;2022-10-31T03:07:09;25.07;;;15.37;;
71366;SDS011;60030;52.274;8.040;2022-10-31T03:09:46;31.00;;;17.60;;
71366;SDS011;60030;52.274;8.040;2022-10-31T03:12:22;29.00;;;15.90;;
71366;SDS011;60030;52.274;8.040;2022-10-31T03:14:53;25.17;;;15.30;;
71366;SDS011;60030;52.274;8.040;2022-10-31T03:17:26;26.03;;;16.33;;
71366;SDS011;60030;52.274;8.040;2022-10-31T03:20:01;27.50;;;15.07;;
71366;SDS011;60030;52.274;8.040;2022-10-31T03:22:32;25.47;;;15.57;;
71366;SDS011;60030;52.274;8.040;2022-10-31T03:25:01;22.73;;;14.03;;
71366;SDS011;60030;52.274;8.040;2022-10-31T03:27:31;25.97;;;15.00;;
71366;SDS011;60030;52.274;8.040;2022-10-31T03:30:02;24.67;;;14.60;;
71366;SDS011;60030;52.274;8.040;2022-10-31T03:32:43;27.20;;;15.07;;
71366;SDS011;60030;52.274;8.040;2022-10-31T03:35:15;22.90;;;15.20;;
71366;SDS011;60030;52.274;8.040;2022-10-31T03:37:47;26.97;;;15.57;;
71366;SDS011;60030;52.274;8.040;2022-10-31T03:40:18;24.90;;;15.27;;
71366;SDS011;60030;52.274;8.040;2022-10-31T03:42:50;25.77;;;15.23;;
71366;SDS011;60030;52.274;8.040;2022-10-31T03:45:21;30.53;;;15.37;;
71366;SDS011;60030;52.274;8.040;2022-10-31T03:47:51;25.20;;;14.70;;
71366;SDS011;60030;52.274;8.040;2022-10-31T03:50:21;24.13;;;13.90;;
71366;SDS011;60030;52.274;8.040;2022-10-31T03:52:52;28.67;;;16.00;;
71366;SDS011;60030;52.274;8.040;2022-10-31T03:55:24;23.97;;;15.50;;
71366;SDS011;60030;52.274;8.040;2022-10-31T03:57:55;23.03;;;14.17;;
71366;SDS011;60030;52.274;8.040;2022-10-31T04:00:26;28.77;;;14.70;;
71366;SDS011;60030;52.274;8.040;2022-10-31T04:02:54;23.23;;;14.30;;
71366;SDS011;60030;52.274;8.040;2022-10-31T04:05:27;23.07;;;14.70;;
71366;SDS011;60030;52.274;8.040;2022-10-31T04:07:59;23.93;;;14.43;;
71366;SDS011;60030;52.274;8.040;2022-10-31T04:10:30;27.47;;;14.57;;
71366;SDS011;60030;52.274;8.040;2022-10-31T04:13:02;26.30;;;14.83;;
71366;SDS011;60030;52.274;8.040;2022-10-31T04:15:38;27.93;;;15.03;;
71366;SDS011;60030;52.274;8.040;2022-10-31T04:18:07;29.70;;;14.73;;
71366;SDS011;60030;52.274;8.040;2022-10-31T04:20:37;24.17;;;14.77;;
71366;SDS011;60030;52.274;8.040;2022-10-31T04:23:09;27.47;;;13.70;;
71366;SDS011;60030;52.274;8.040;2022-10-31T04:25:44;25.53;;;14.43;;
71366;SDS011;60030;52.274;8.040;2022-10-31T04:28:11;25.20;;;15.40;;
71366;SDS011;60030;52.274;8.040;2022-10-31T04:30:39;23.67;;;15.50;;
71366;SDS011;60030;52.274;8.040;2022-10-31T04:33:06;26.40;;;15.57;;
71366;SDS011;60030;52.274;8.040;2022-10-31T04:35:34;27.67;;;15.20;;
71366;SDS011;60030;52.274;8.040;2022-10-31T04:38:02;23.67;;;14.73;;
71366;SDS011;60030;52.274;8.040;2022-10-31T04:40:29;25.63;;;15.00;;
71366;SDS011;60030;52.274;8.040;2022-10-31T04:42:56;20.90;;;13.37;;
71366;SDS011;60030;52.274;8.040;2022-10-31T04:45:23;23.50;;;13.97;;
71366;SDS011;60030;52.274;8.040;2022-10-31T04:47:54;26.87;;;14.73;;
71366;SDS011;60030;52.274;8.040;2022-10-31T04:50:23;24.33;;;15.23;;
71366;SDS011;60030;52.274;8.040;2022-10-31T04:52:50;22.87;;;14.70;;
71366;SDS011;60030;52.274;8.040;2022-10-31T04:55:24;22.73;;;14.20;;
71366;SDS011;60030;52.274;8.040;2022-10-31T04:58:26;27.00;;;14.77;;
71366;SDS011;60030;52.274;8.040;2022-10-31T05:00:54;25.83;;;14.60;;
71366;SDS011;60030;52.274;8.040;2022-10-31T05:03:22;20.63;;;14.17;;
71366;SDS011;60030;52.274;8.040;2022-10-31T05:05:49;26.40;;;14.83;;
71366;SDS011;60030;52.274;8.040;2022-10-31T05:08:16;23.33;;;14.13;;
71366;SDS011;60030;52.274;8.040;2022-10-31T05:10:46;26.80;;;15.63;;
71366;SDS011;60030;52.274;8.040;2022-10-31T05:13:13;23.80;;;14.47;;
71366;SDS011;60030;52.274;8.040;2022-10-31T05:15:59;27.23;;;15.20;;
71366;SDS011;60030;52.274;8.040;2022-10-31T05:18:45;22.17;;;13.30;;
71366;SDS011;60030;52.274;8.040;2022-10-31T05:21:27;30.20;;;15.57;;
71366;SDS011;60030;52.274;8.040;2022-10-31T05:23:58;22.13;;;14.20;;
71366;SDS011;60030;52.274;8.040;2022-10-31T05:26:27;24.70;;;14.20;;
71366;SDS011;60030;52.274;8.040;2022-10-31T05:28:55;27.53;;;15.37;;
71366;SDS011;60030;52.274;8.040;2022-10-31T05:31:22;23.60;;;14.40;;
71366;SDS011;60030;52.274;8.040;2022-10-31T05:33:51;28.00;;;15.10;;
71366;SDS011;60030;52.274;8.040;2022-10-31T05:36:36;27.93;;;15.10;;
71366;SDS011;60030;52.274;8.040;2022-10-31T05:39:10;23.00;;;15.30;;
71366;SDS011;60030;52.274;8.040;2022-10-31T05:41:46;21.90;;;14.37;;
71366;SDS011;60030;52.274;8.040;2022-10-31T05:44:22;21.70;;;14.47;;
71366;SDS011;60030;52.274;8.040;2022-10-31T05:47:15;31.43;;;15.90;;
71366;SDS011;60030;52.274;8.040;2022-10-31T05:49:54;23.80;;;14.90;;
71366;SDS011;60030;52.274;8.040;2022-10-31T05:52:40;22.77;;;13.70;;
71366;SDS011;60030;52.274;8.040;2022-10-31T05:55:20;22.63;;;14.00;;
71366;SDS011;60030;52.274;8.040;2022-10-31T05:58:03;23.00;;;14.27;;
71366;SDS011;60030;52.274;8.040;2022-10-31T06:00:31;23.77;;;12.97;;
71366;SDS011;60030;52.274;8.040;2022-10-31T06:03:05;20.83;;;13.87;;
71366;SDS011;60030;52.274;8.040;2022-10-31T06:06:00;17.43;;;12.17;;
71366;SDS011;60030;52.274;8.040;2022-10-31T06:08:35;18.97;;;13.23;;
71366;SDS011;60030;52.274;8.040;2022-10-31T06:11:06;16.60;;;11.97;;
71366;SDS011;60030;52.274;8.040;2022-10-31T06:13:53;16.63;;;11.87;;
71366;SDS011;60030;52.274;8.040;2022-10-31T06:16:30;14.30;;;10.70;;
71366;SDS011;60030;52.274;8.040;2022-10-31T06:19:06;14.87;;;10.90;;
71366;SDS011;60030;52.274;8.040;2022-10-31T06:21:34;15.00;;;10.87;;
71366;SDS011;60030;52.274;8.040;2022-10-31T06:24:01;14.90;;;11.03;;
71366;SDS011;60030;52.274;8.040;2022-10-31T06:26:51;17.77;;;12.07;;
71366;SDS011;60030;52.274;8.040;2022-10-31T06:29:21;14.43;;;10.87;;
71366;SDS011;60030;52.274;8.040;2022-10-31T06:32:10;15.77;;;11.03;;
71366;SDS011;60030;52.274;8.040;2022-10-31T06:34:41;17.70;;;11.20;;
71366;SDS011;60030;52.274;8.040;2022-10-31T06:37:09;13.87;;;10.63;;
71366;SDS011;60030;52.274;8.040;2022-10-31T06:39:40;11.80;;;9.97;;
71366;SDS011;60030;52.274;8.040;2022-10-31T06:42:09;13.20;;;10.73;;
71366;SDS011;60030;52.274;8.040;2022-10-31T06:44:38;14.97;;;10.90;;
71366;SDS011;60030;52.274;8.040;2022-10-31T06:47:48;13.13;;;11.23;;
71366;SDS011;60030;52.274;8.040;2022-10-31T06:50:24;14.00;;;10.33;;
71366;SDS011;60030;52.274;8.040;2022-10-31T06:52:52;14.93;;;11.30;;
71366;SDS011;60030;52.274;8.040;2022-10-31T06:55:20;13.37;;;10.83;;
71366;SDS011;60030;52.274;8.040;2022-10-31T06:57:51;15.53;;;11.83;;
71366;SDS011;60030;52.274;8.040;2022-10-31T07:00:20;14.93;;;11.33;;
71366;SDS011;60030;52.274;8.040;2022-10-31T07:02:55;16.57;;;11.63;;
71366;SDS011;60030;52.274;8.040;2022-10-31T07:05:22;16.37;;;11.47;;
71366;SDS011;60030;52.274;8.040;2022-10-31T07:07:51;15.00;;;11.00;;
71366;SDS011;60030;52.274;8.040;2022-10-31T07:10:20;17.20;;;11.83;;
71366;SDS011;60030;52.274;8.040;2022-10-31T07:12:58;15.87;;;11.90;;
71366;SDS011;60030;52.274;8.040;2022-10-31T07:15:28;16.30;;;12.40;;
71366;SDS011;60030;52.274;8.040;2022-10-31T07:17:58;17.63;;;11.80;;
71366;SDS011;60030;52.274;8.040;2022-10-31T07:20:26;16.50;;;11.93;;
71366;SDS011;60030;52.274;8.040;2022-10-31T07:22:54;16.07;;;12.23;;
71366;SDS011;60030;52.274;8.040;2022-10-31T07:25:22;17.77;;;12.67;;
71366;SDS011;60030;52.274;8.040;2022-10-31T07:28:17;16.47;;;12.20;;
71366;SDS011;60030;52.274;8.040;2022-10-31T07:30:50;19.73;;;12.33;;
71366;SDS011;60030;52.274;8.040;2022-10-31T07:33:19;20.30;;;12.80;;
71366;SDS011;60030;52.274;8.040;2022-10-31T07:36:06;17.30;;;11.87;;
71366;SDS011;60030;52.274;8.040;2022-10-31T07:38:33;16.90;;;11.60;;
71366;SDS011;60030;52.274;8.040;2022-10-31T07:41:03;14.80;;;11.07;;
71366;SDS011;60030;52.274;8.040;2022-10-31T07:43:36;17.60;;;12.17;;
71366;SDS011;60030;52.274;8.040;2022-10-31T07:46:16;17.60;;;11.67;;
71366;SDS011;60030;52.274;8.040;2022-10-31T07:48:58;16.90;;;10.93;;
71366;SDS011;60030;52.274;8.040;2022-10-31T07:51:44;16.40;;;11.27;;
71366;SDS011;60030;52.274;8.040;2022-10-31T07:54:29;15.47;;;11.70;;
71366;SDS011;60030;52.274;8.040;2022-10-31T07:56:56;14.17;;;11.37;;
71366;SDS011;60030;52.274;8.040;2022-10-31T07:59:23;13.60;;;10.70;;
71366;SDS011;60030;52.274;8.040;2022-10-31T08:01:52;11.47;;;10.10;;
71366;SDS011;60030;52.274;8.040;2022-10-31T08:04:38;12.47;;;10.40;;
71366;SDS011;60030;52.274;8.040;2022-10-31T08:07:23;11.93;;;9.93;;
71366;SDS011;60030;52.274;8.040;2022-10-31T08:09:57;11.50;;;9.60;;
71366;SDS011;60030;52.274;8.040;2022-10-31T08:12:28;12.90;;;10.47;;
71366;SDS011;60030;52.274;8.040;2022-10-31T08:14:57;11.27;;;9.80;;
71366;SDS011;60030;52.274;8.040;2022-10-31T08:17:26;13.40;;;11.07;;
71366;SDS011;60030;52.274;8.040;2022-10-31T08:19:58;12.17;;;10.53;;
71366;SDS011;60030;52.274;8.040;2022-10-31T08:22:32;11.43;;;9.87;;
71366;SDS011;60030;52.274;8.040;2022-10-31T08:25:00;11.63;;;10.27;;
71366;SDS011;60030;52.274;8.040;2022-10-31T08:27:28;11.93;;;10.30;;
71366;SDS011;60030;52.274;8.040;2022-10-31T08:29:58;15.93;;;11.77;;
71366;SDS011;60030;52.274;8.040;2022-10-31T08:32:26;15.20;;;12.30;;
71366;SDS011;60030;52.274;8.040;2022-10-31T08:34:57;16.40;;;12.60;;
71366;SDS011;60030;52.274;8.040;2022-10-31T08:37:42;13.23;;;10.63;;
71366;SDS011;60030;52.274;8.040;2022-10-31T08:40:10;13.47;;;10.43;;
71366;SDS011;60030;52.274;8.040;2022-10-31T08:42:39;13.10;;;10.77;;
71366;SDS011;60030;52.274;8.040;2022-10-31T08:45:06;14.43;;;10.43;;
71366;SDS011;60030;52.274;8.040;2022-10-31T08:47:36;13.27;;;10.97;;
71366;SDS011;60030;52.274;8.040;2022-10-31T08:50:04;20.00;;;15.00;;
71366;SDS011;60030;52.274;8.040;2022-10-31T08:52:31;19.07;;;14.80;;
71366;SDS011;60030;52.274;8.040;2022-10-31T08:55:01;13.87;;;11.63;;
71366;SDS011;60030;52.274;8.040;2022-10-31T08:57:54;15.87;;;11.60;;
71366;SDS011;60030;52.274;8.040;2022-10-31T09:00:22;17.37;;;11.70;;
71366;SDS011;60030;52.274;8.040;2022-10-31T09:03:00;15.10;;;12.43;;
71366;SDS011;60030;52.274;8.040;2022-10-31T09:05:31;17.63;;;12.50;;
71366;SDS011;60030;52.274;8.040;2022-10-31T09:07:59;21.47;;;14.13;;
71366;SDS011;60030;52.274;8.040;2022-10-31T09:10:29;17.90;;;13.50;;
71366;SDS011;60030;52.274;8.040;2022-10-31T09:12:57;20.47;;;14.73;;
71366;SDS011;60030;52.274;8.040;2022-10-31T09:15:45;18.27;;;13.53;;
71366;SDS011;60030;52.274;8.040;2022-10-31T09:18:21;18.00;;;14.13;;
71366;SDS011;60030;52.274;8.040;2022-10-31T09:20:54;20.43;;;14.43;;
71366;SDS011;60030;52.274;8.040;2022-10-31T09:23:26;22.33;;;13.90;;
71366;SDS011;60030;52.274;8.040;2022-10-31T09:25:54;21.57;;;14.93;;
71366;SDS011;60030;52.274;8.040;2022-10-31T09:28:33;19.27;;;14.53;;
71366;SDS011;60030;52.274;8.040;2022-10-31T09:31:06;26.27;;;16.27;;
71366;SDS011;60030;52.274;8.040;2022-10-31T09:33:54;23.23;;;15.13;;
71366;SDS011;60030;52.274;8.040;2022-10-31T09:36:43;25.60;;;16.10;;
71366;SDS011;60030;52.274;8.040;2022-10-31T09:39:18;22.70;;;14.47;;
71366;SDS011;60030;52.274;8.040;2022-10-31T09:45:01;29.10;;;20.03;;
71366;SDS011;60030;52.274;8.040;2022-10-31T09:47:39;26.33;;;17.83;;
71366;SDS011;60030;52.274;8.040;2022-10-31T09:50:42;27.90;;;16.93;;
71366;SDS011;60030;52.274;8.040;2022-10-31T09:53:32;24.10;;;16.03;;
71366;SDS011;60030;52.274;8.040;2022-10-31T09:56:05;22.03;;;15.33;;
71366;SDS011;60030;52.274;8.040;2022-10-31T09:58:37;24.07;;;15.40;;
71366;SDS011;60030;52.274;8.040;2022-10-31T10:01:09;20.93;;;14.57;;
71366;SDS011;60030;52.274;8.040;2022-10-31T10:03:46;22.23;;;15.23;;
71366;SDS011;60030;52.274;8.040;2022-10-31T10:06:42;23.47;;;15.07;;
71366;SDS011;60030;52.274;8.040;2022-10-31T10:09:48;23.33;;;14.73;;
71366;SDS011;60030;52.274;8.040;2022-10-31T10:12:28;22.50;;;14.80;;
71366;SDS011;60030;52.274;8.040;2022-10-31T10:15:16;23.07;;;14.87;;
71366;SDS011;60030;52.274;8.040;2022-10-31T10:17:57;32.30;;;20.60;;
71366;SDS011;60030;52.274;8.040;2022-10-31T10:20:30;41.27;;;26.87;;
71366;SDS011;60030;52.274;8.040;2022-10-31T10:23:10;31.53;;;19.80;;
71366;SDS011;60030;52.274;8.040;2022-10-31T10:25:48;26.77;;;15.90;;
71366;SDS011;60030;52.274;8.040;2022-10-31T10:28:21;25.13;;;15.67;;
71366;SDS011;60030;52.274;8.040;2022-10-31T10:30:53;22.60;;;15.00;;
71366;SDS011;60030;52.274;8.040;2022-10-31T10:33:29;22.40;;;14.37;;
71366;SDS011;60030;52.274;8.040;2022-10-31T10:35:59;22.30;;;13.70;;
71366;SDS011;60030;52.274;8.040;2022-10-31T10:38:32;20.43;;;13.43;;
71366;SDS011;60030;52.274;8.040;2022-10-31T10:41:05;21.50;;;13.13;;
71366;SDS011;60030;52.274;8.040;2022-10-31T10:43:39;21.20;;;13.10;;
71366;SDS011;60030;52.274;8.040;2022-10-31T10:46:18;18.50;;;12.00;;
71366;SDS011;60030;52.274;8.040;2022-10-31T10:49:15;19.60;;;12.00;;
71366;SDS011;60030;52.274;8.040;2022-10-31T10:51:44;24.60;;;12.97;;
71366;SDS011;60030;52.274;8.040;2022-10-31T10:54:17;24.17;;;12.37;;
71366;SDS011;60030;52.274;8.040;2022-10-31T10:56:57;20.17;;;12.93;;
71366;SDS011;60030;52.274;8.040;2022-10-31T10:59:30;22.50;;;12.20;;
71366;SDS011;60030;52.274;8.040;2022-10-31T11:01:58;20.37;;;12.17;;
71366;SDS011;60030;52.274;8.040;2022-10-31T11:04:28;23.73;;;12.57;;
71366;SDS011;60030;52.274;8.040;2022-10-31T11:07:01;21.87;;;12.57;;
71366;SDS011;60030;52.274;8.040;2022-10-31T11:09:31;19.87;;;12.20;;
71366;SDS011;60030;52.274;8.040;2022-10-31T11:11:59;19.97;;;13.83;;
71366;SDS011;60030;52.274;8.040;2022-10-31T11:14:33;24.90;;;16.23;;
71366;SDS011;60030;52.274;8.040;2022-10-31T11:17:10;23.83;;;13.87;;
71366;SDS011;60030;52.274;8.040;2022-10-31T11:19:44;15.53;;;9.87;;
71366;SDS011;60030;52.274;8.040;2022-10-31T11:22:13;16.53;;;10.37;;
71366;SDS011;60030;52.274;8.040;2022-10-31T11:24:44;22.93;;;12.27;;
71366;SDS011;60030;52.274;8.040;2022-10-31T11:27:13;15.67;;;9.73;;
71366;SDS011;60030;52.274;8.040;2022-10-31T11:29:41;11.87;;;8.03;;
71366;SDS011;60030;52.274;8.040;2022-10-31T11:32:15;17.03;;;9.23;;
71366;SDS011;60030;52.274;8.040;2022-10-31T11:34:45;13.53;;;8.20;;
71366;SDS011;60030;52.274;8.040;2022-10-31T11:37:16;15.87;;;8.83;;
71366;SDS011;60030;52.274;8.040;2022-10-31T11:39:49;18.00;;;9.47;;
71366;SDS011;60030;52.274;8.040;2022-10-31T11:42:20;17.10;;;9.53;;
71366;SDS011;60030;52.274;8.040;2022-10-31T11:44:49;17.17;;;9.53;;
71366;SDS011;60030;52.274;8.040;2022-10-31T11:47:19;16.67;;;9.73;;
71366;SDS011;60030;52.274;8.040;2022-10-31T11:49:51;17.48;;;10.10;;
71366;SDS011;60030;52.274;8.040;2022-10-31T11:52:19;17.83;;;10.80;;
71366;SDS011;60030;52.274;8.040;2022-10-31T11:54:54;19.73;;;9.43;;
71366;SDS011;60030;52.274;8.040;2022-10-31T11:57:24;18.50;;;9.30;;
71366;SDS011;60030;52.274;8.040;2022-10-31T11:59:53;16.67;;;9.93;;
71366;SDS011;60030;52.274;8.040;2022-10-31T12:02:22;18.53;;;9.37;;
71366;SDS011;60030;52.274;8.040;2022-10-31T12:04:51;16.37;;;9.30;;
71366;SDS011;60030;52.274;8.040;2022-10-31T12:07:25;15.33;;;10.27;;
71366;SDS011;60030;52.274;8.040;2022-10-31T12:09:53;17.95;;;9.32;;
71366;SDS011;60030;52.274;8.040;2022-10-31T12:12:27;19.20;;;9.73;;
71366;SDS011;60030;52.274;8.040;2022-10-31T12:15:19;16.27;;;8.35;;
71366;SDS011;60030;52.274;8.040;2022-10-31T12:17:55;13.88;;;8.80;;
71366;SDS011;60030;52.274;8.040;2022-10-31T12:20:30;14.93;;;9.73;;
71366;SDS011;60030;52.274;8.040;2022-10-31T12:23:06;14.95;;;8.35;;
71366;SDS011;60030;52.274;8.040;2022-10-31T12:25:43;16.88;;;9.15;;
71366;SDS011;60030;52.274;8.040;2022-10-31T12:31:32;10.83;;;6.70;;
71366;SDS011;60030;52.274;8.040;2022-10-31T12:34:12;10.75;;;7.32;;
71366;SDS011;60030;52.274;8.040;2022-10-31T12:37:10;15.07;;;8.33;;
71366;SDS011;60030;52.274;8.040;2022-10-31T12:39:47;11.93;;;8.10;;
71366;SDS011;60030;52.274;8.040;2022-10-31T12:42:27;13.65;;;7.00;;
71366;SDS011;60030;52.274;8.040;2022-10-31T12:45:13;13.23;;;7.57;;
71366;SDS011;60030;52.274;8.040;2022-10-31T12:47:58;13.23;;;7.72;;
71366;SDS011;60030;52.274;8.040;2022-10-31T12:50:35;14.25;;;7.50;;
71366;SDS011;60030;52.274;8.040;2022-10-31T12:53:19;17.17;;;8.45;;
71366;SDS011;60030;52.274;8.040;2022-10-31T12:56:07;10.98;;;8.40;;
71366;SDS011;60030;52.274;8.040;2022-10-31T12:58:47;15.73;;;9.60;;
71366;SDS011;60030;52.274;8.040;2022-10-31T13:01:24;15.90;;;9.77;;
71366;SDS011;60030;52.274;8.040;2022-10-31T13:03:56;12.13;;;7.67;;
71366;SDS011;60030;52.274;8.040;2022-10-31T13:06:29;10.75;;;8.05;;
71366;SDS011;60030;52.274;8.040;2022-10-31T13:09:00;13.60;;;7.70;;
71366;SDS011;60030;52.274;8.040;2022-10-31T13:11:32;12.30;;;7.05;;
71366;SDS011;60030;52.274;8.040;2022-10-31T13:14:07;13.30;;;7.45;;
71366;SDS011;60030;52.274;8.040;2022-10-31T13:16:39;17.08;;;7.25;;
71366;SDS011;60030;52.274;8.040;2022-10-31T13:19:10;15.67;;;7.53;;
71366;SDS011;60030;52.274;8.040;2022-10-31T13:21:43;14.10;;;8.63;;
71366;SDS011;60030;52.274;8.040;2022-10-31T13:24:18;13.17;;;8.50;;
71366;SDS011;60030;52.274;8.040;2022-10-31T13:26:49;13.30;;;7.82;;
71366;SDS011;60030;52.274;8.040;2022-10-31T13:29:21;16.70;;;9.35;;
71366;SDS011;60030;52.274;8.040;2022-10-31T13:31:53;14.63;;;8.37;;
71366;SDS011;60030;52.274;8.040;2022-10-31T13:34:23;20.27;;;10.05;;
71366;SDS011;60030;52.274;8.040;2022-10-31T13:36:55;17.70;;;9.57;;
71366;SDS011;60030;52.274;8.040;2022-10-31T13:39:30;21.33;;;12.47;;
71366;SDS011;60030;52.274;8.040;2022-10-31T13:42:12;21.52;;;13.23;;
71366;SDS011;60030;52.274;8.040;2022-10-31T13:44:45;25.38;;;16.25;;
71366;SDS011;60030;52.274;8.040;2022-10-31T13:47:23;22.90;;;13.37;;
71366;SDS011;60030;52.274;8.040;2022-10-31T13:50:02;21.70;;;12.00;;
71366;SDS011;60030;52.274;8.040;2022-10-31T13:52:31;16.13;;;10.20;;
71366;SDS011;60030;52.274;8.040;2022-10-31T13:54:59;20.70;;;10.63;;
71366;SDS011;60030;52.274;8.040;2022-10-31T13:57:30;21.90;;;11.47;;
71366;SDS011;60030;52.274;8.040;2022-10-31T14:00:01;20.87;;;10.57;;
71366;SDS011;60030;52.274;8.040;2022-10-31T14:02:43;19.73;;;11.53;;
71366;SDS011;60030;52.274;8.040;2022-10-31T14:05:18;18.63;;;11.13;;
71366;SDS011;60030;52.274;8.040;2022-10-31T14:07:50;20.27;;;12.03;;
71366;SDS011;60030;52.274;8.040;2022-10-31T14:10:22;19.53;;;10.80;;
71366;SDS011;60030;52.274;8.040;2022-10-31T14:12:52;19.30;;;11.60;;
71366;SDS011;60030;52.274;8.040;2022-10-31T14:15:23;18.53;;;12.10;;
71366;SDS011;60030;52.274;8.040;2022-10-31T14:17:54;19.80;;;10.77;;
71366;SDS011;60030;52.274;8.040;2022-10-31T14:20:32;19.63;;;11.53;;
71366;SDS011;60030;52.274;8.040;2022-10-31T14:23:11;20.07;;;11.80;;
71366;SDS011;60030;52.274;8.040;2022-10-31T14:26:06;20.07;;;11.63;;
71366;SDS011;60030;52.274;8.040;2022-10-31T14:28:48;18.57;;;10.73;;
71366;SDS011;60030;52.274;8.040;2022-10-31T14:31:32;18.17;;;10.50;;
71366;SDS011;60030;52.274;8.040;2022-10-31T14:34:04;22.70;;;11.37;;
71366;SDS011;60030;52.274;8.040;2022-10-31T14:36:47;22.47;;;11.70;;
71366;SDS011;60030;52.274;8.040;2022-10-31T14:39:24;20.10;;;10.47;;
71366;SDS011;60030;52.274;8.040;2022-10-31T14:42:00;22.97;;;11.70;;
71366;SDS011;60030;52.274;8.040;2022-10-31T14:44:41;19.87;;;11.63;;
71366;SDS011;60030;52.274;8.040;2022-10-31T14:47:31;17.23;;;11.13;;
71366;SDS011;60030;52.274;8.040;2022-10-31T14:50:10;20.03;;;11.60;;
71366;SDS011;60030;52.274;8.040;2022-10-31T14:52:56;22.50;;;11.80;;
71366;SDS011;60030;52.274;8.040;2022-10-31T14:55:26;21.60;;;12.10;;
71366;SDS011;60030;52.274;8.040;2022-10-31T14:57:54;22.00;;;12.40;;
71366;SDS011;60030;52.274;8.040;2022-10-31T15:00:24;20.57;;;11.60;;
71366;SDS011;60030;52.274;8.040;2022-10-31T15:03:01;21.90;;;11.87;;
71366;SDS011;60030;52.274;8.040;2022-10-31T15:05:34;19.70;;;12.13;;
71366;SDS011;60030;52.274;8.040;2022-10-31T15:08:12;18.73;;;11.50;;
71366;SDS011;60030;52.274;8.040;2022-10-31T15:10:44;21.50;;;12.40;;